createdAt,value
2018-09-05T00:00:56.510Z,32.93
2018-09-05T00:05:59.710Z,34.65
2018-09-05T00:11:02.943Z,32.90
2018-09-05T00:16:06.139Z,33.65
2018-09-05T00:21:09.348Z,32.87
2018-09-05T00:26:12.553Z,35.13
2018-09-05T00:31:15.805Z,37.40
2018-09-05T00:36:19.068Z,35.60
2018-09-05T00:41:22.254Z,32.10
2018-09-05T00:46:25.457Z,34.35
2018-09-05T00:51:28.670Z,35.30
2018-09-05T00:56:31.880Z,35.07
2018-09-05T01:01:35.083Z,34.07
2018-09-05T01:06:38.291Z,36.23
2018-09-05T01:11:41.502Z,38.53
2018-09-05T01:16:44.679Z,40.93
2018-09-05T01:21:47.871Z,43.55
2018-09-05T01:26:51.077Z,44.48
2018-09-05T01:31:54.254Z,42.40
2018-09-05T01:36:57.467Z,38.87
2018-09-05T01:42:00.667Z,41.02
2018-09-05T01:47:03.882Z,43.00
2018-09-05T01:52:07.114Z,40.80
2018-09-05T01:57:10.370Z,36.23
2018-09-05T02:02:14.006Z,36.25
2018-09-05T02:07:17.350Z,36.80
2018-09-05T02:12:20.572Z,36.00
2018-09-05T02:17:23.835Z,37.23
2018-09-05T02:22:27.034Z,36.17
2018-09-05T02:27:30.217Z,37.73
2018-09-05T02:32:33.421Z,38.13
2018-09-05T02:37:36.610Z,38.35
2018-09-05T02:42:39.810Z,38.70
2018-09-05T02:47:42.986Z,39.73
2018-09-05T02:52:46.178Z,37.60
2018-09-05T02:57:49.451Z,36.58
2018-09-05T03:02:52.695Z,34.63
2018-09-05T03:07:55.950Z,35.85
2018-09-05T03:12:59.194Z,34.43
2018-09-05T03:18:02.410Z,35.87
2018-09-05T03:23:05.651Z,34.58
2018-09-05T03:28:09.535Z,36.15
2018-09-05T03:33:12.757Z,35.23
2018-09-05T03:38:15.989Z,36.43
2018-09-05T03:43:19.248Z,36.75
2018-09-05T03:48:22.471Z,37.93
2018-09-05T03:53:26.846Z,38.95
2018-09-05T03:58:36.778Z,40.20
2018-09-05T04:03:40.350Z,38.90
2018-09-05T04:08:43.559Z,40.92
2018-09-05T04:13:47.332Z,40.23
2018-09-05T04:18:51.956Z,39.03
2018-09-05T04:23:55.239Z,39.77
2018-09-05T04:28:58.474Z,39.73
2018-09-05T04:34:01.707Z,36.53
2018-09-05T04:39:07.822Z,37.20
2018-09-05T04:44:11.078Z,38.45
2018-09-05T04:49:44.220Z,38.23
2018-09-05T04:54:47.451Z,37.48
2018-09-05T04:59:50.932Z,36.68
2018-09-05T05:04:54.573Z,38.27
2018-09-05T05:09:57.823Z,35.88
2018-09-05T05:15:01.056Z,32.60
2018-09-05T05:20:04.340Z,31.55
2018-09-05T05:25:07.643Z,30.03
2018-09-05T05:30:10.892Z,26.60
2018-09-05T05:35:14.503Z,24.70
2018-09-05T05:40:17.836Z,23.90
2018-09-05T05:45:21.067Z,23.50
2018-09-05T05:50:24.290Z,22.60
2018-09-05T05:55:27.845Z,22.90
2018-09-05T06:00:31.056Z,21.60
2018-09-05T06:05:34.264Z,22.00
2018-09-05T06:10:37.484Z,20.80
2018-09-05T06:15:40.759Z,19.60
2018-09-05T06:20:43.946Z,19.90
2018-09-05T06:25:47.174Z,19.23
2018-09-05T06:30:50.639Z,19.25
2018-09-05T06:35:53.939Z,18.80
2018-09-05T06:40:57.115Z,18.77
2018-09-05T06:46:00.316Z,18.30
2018-09-05T06:51:06.326Z,18.20
2018-09-05T06:56:09.511Z,17.05
2018-09-05T07:01:12.709Z,17.23
2018-09-05T07:06:15.912Z,17.05
2018-09-05T07:11:19.198Z,16.37
2018-09-05T07:16:22.495Z,16.60
2018-09-05T07:21:25.824Z,15.15
2018-09-05T07:26:28.992Z,14.98
2018-09-05T07:31:32.224Z,15.25
2018-09-05T07:36:35.410Z,14.68
2018-09-05T07:41:39.599Z,14.00
2018-09-05T07:46:42.792Z,13.55
2018-09-05T07:51:45.994Z,14.93
2018-09-05T07:56:49.233Z,13.55
2018-09-05T08:01:52.423Z,13.80
2018-09-05T08:06:55.615Z,13.22
2018-09-05T08:11:58.824Z,13.45
2018-09-05T08:17:02.555Z,12.67
2018-09-05T08:22:05.792Z,12.60
2018-09-05T08:27:08.981Z,11.70
2018-09-05T08:32:12.166Z,11.60
2018-09-05T08:37:15.657Z,11.10
2018-09-05T08:42:18.845Z,11.08
2018-09-05T08:47:22.148Z,10.57
2018-09-05T08:52:25.279Z,10.82
2018-09-05T08:57:28.486Z,10.00
2018-09-05T09:02:31.680Z,10.07
2018-09-05T09:07:34.920Z,10.20
2018-09-05T09:12:38.102Z,9.85
2018-09-05T09:17:41.700Z,9.28
2018-09-05T09:22:44.891Z,8.10
2018-09-05T09:27:48.123Z,8.20
2018-09-05T09:32:51.312Z,8.40
2018-09-05T09:37:54.639Z,8.50
2018-09-05T09:42:57.806Z,8.03
2018-09-05T09:48:02.015Z,7.23
2018-09-05T09:53:05.218Z,6.95
2018-09-05T09:58:08.459Z,5.57
2018-09-05T10:03:17.224Z,5.55
2018-09-05T10:08:25.807Z,6.10
2018-09-05T10:13:34.597Z,6.30
2018-09-05T10:18:39.863Z,6.20
2018-09-05T10:23:43.070Z,6.40
2018-09-05T10:28:46.354Z,6.72
2018-09-05T10:33:49.585Z,6.17
2018-09-05T10:38:52.821Z,7.00
2018-09-05T10:43:56.031Z,6.40
2018-09-05T10:48:59.260Z,6.67
2018-09-05T10:54:02.507Z,6.67
2018-09-05T10:59:05.743Z,6.65
2018-09-05T11:04:08.995Z,5.95
2018-09-05T11:09:12.656Z,7.23
2018-09-05T11:14:15.874Z,6.50
2018-09-05T11:19:19.099Z,6.90
2018-09-05T11:24:22.363Z,7.13
2018-09-05T11:29:25.587Z,7.15
2018-09-05T11:34:28.818Z,6.30
2018-09-05T11:39:32.170Z,6.80
2018-09-05T11:44:36.223Z,6.80
2018-09-05T11:49:39.502Z,6.62
2018-09-05T11:54:42.731Z,5.90
2018-09-05T11:59:45.941Z,5.60
2018-09-05T12:04:49.287Z,5.95
2018-09-05T12:09:52.516Z,5.95
2018-09-05T12:14:55.744Z,5.70
2018-09-05T12:19:58.979Z,5.53
2018-09-05T12:25:02.475Z,4.93
2018-09-05T12:30:05.701Z,5.10
2018-09-05T12:35:08.940Z,5.05
2018-09-05T12:40:12.539Z,4.42
2018-09-05T12:45:15.760Z,5.15
2018-09-05T12:50:18.982Z,4.70
2018-09-05T12:55:22.251Z,4.60
2018-09-05T13:00:25.595Z,4.30
2018-09-05T13:05:28.884Z,4.40
2018-09-05T13:10:32.364Z,4.70
2018-09-05T13:15:35.583Z,4.30
2018-09-05T13:20:38.979Z,4.67
2018-09-05T13:25:42.227Z,4.30
2018-09-05T13:30:45.720Z,4.10
2018-09-05T13:35:48.958Z,4.20
2018-09-05T13:40:52.190Z,4.15
2018-09-05T13:45:55.418Z,4.03
2018-09-05T13:50:58.657Z,3.95
2018-09-05T13:56:02.315Z,3.90
2018-09-05T14:01:06.585Z,3.90
2018-09-05T14:06:09.798Z,3.90
2018-09-05T14:11:13.019Z,4.03
2018-09-05T14:16:16.263Z,4.22
2018-09-05T14:21:19.487Z,3.62
2018-09-05T14:26:23.056Z,3.77
2018-09-05T14:31:26.288Z,3.90
2018-09-05T14:36:29.537Z,3.43
2018-09-05T14:41:32.718Z,3.15
2018-09-05T14:46:36.183Z,3.45
2018-09-05T14:51:39.399Z,3.47
2018-09-05T14:56:42.731Z,3.02
2018-09-05T15:01:46.018Z,3.33
2018-09-05T15:06:49.237Z,3.10
2018-09-05T15:11:52.571Z,3.70
2018-09-05T15:16:55.786Z,3.42
2018-09-05T15:21:59.055Z,3.52
2018-09-05T15:27:03.102Z,3.95
2018-09-05T15:32:06.378Z,3.50
2018-09-05T15:37:09.617Z,3.47
2018-09-05T15:42:13.514Z,4.00
2018-09-05T15:47:16.792Z,3.70
2018-09-05T15:52:19.995Z,3.90
2018-09-05T15:57:23.245Z,3.65
2018-09-05T16:02:26.403Z,3.95
2018-09-05T16:07:29.611Z,3.83
2018-09-05T16:12:32.781Z,3.97
2018-09-05T16:17:36.244Z,4.12
2018-09-05T16:22:39.455Z,4.20
2018-09-05T16:27:42.639Z,4.15
2018-09-05T16:32:45.870Z,4.20
2018-09-05T16:37:49.055Z,5.25
2018-09-05T16:42:52.847Z,4.10
2018-09-05T16:47:56.023Z,4.23
2018-09-05T16:52:59.231Z,5.00
2018-09-05T16:58:02.520Z,5.25
2018-09-05T17:03:05.760Z,4.72
2018-09-05T17:08:09.007Z,5.10
2018-09-05T17:13:12.218Z,4.67
2018-09-05T17:18:15.422Z,5.12
2018-09-05T17:23:18.682Z,4.90
2018-09-05T17:28:21.926Z,5.00
2018-09-05T17:33:25.156Z,5.33
2018-09-05T17:38:28.492Z,5.08
2018-09-05T17:43:32.754Z,4.70
2018-09-05T17:48:36.523Z,4.65
2018-09-05T17:53:39.806Z,4.60
2018-09-05T17:58:42.955Z,5.15
2018-09-05T18:03:46.244Z,5.08
2018-09-05T18:08:49.484Z,5.28
2018-09-05T18:13:53.723Z,5.47
2018-09-05T18:18:57.151Z,5.30
2018-09-05T18:24:00.370Z,5.07
2018-09-05T18:29:03.620Z,4.87
2018-09-05T18:34:06.854Z,4.83
2018-09-05T18:39:10.884Z,4.73
2018-09-05T18:44:14.096Z,5.42
2018-09-05T18:49:17.425Z,5.20
2018-09-05T18:54:20.592Z,5.37
2018-09-05T18:59:23.821Z,7.08
2018-09-05T19:04:27.030Z,5.50
2018-09-05T19:09:30.270Z,5.80
2018-09-05T19:14:33.444Z,4.90
2018-09-05T19:19:36.696Z,5.25
2018-09-05T19:24:39.910Z,4.97
2018-09-05T19:29:43.123Z,4.57
2018-09-05T19:34:46.358Z,5.07
2018-09-05T19:39:49.591Z,5.20
2018-09-05T19:44:52.820Z,5.50
2018-09-05T19:49:56.239Z,5.60
2018-09-05T19:54:59.482Z,5.60
2018-09-05T20:00:02.723Z,6.47
2018-09-05T20:05:06.028Z,5.15
2018-09-05T20:10:09.480Z,5.50
2018-09-05T20:15:12.746Z,6.67
2018-09-05T20:20:15.935Z,4.37
2018-09-05T20:25:19.678Z,4.25
2018-09-05T20:30:22.975Z,4.97
2018-09-05T20:35:26.199Z,5.33
2018-09-05T20:40:29.431Z,5.45
2018-09-05T20:45:32.683Z,5.10
2018-09-05T20:50:35.883Z,4.87
2018-09-05T20:55:39.079Z,4.83
2018-09-05T21:00:42.263Z,4.50
2018-09-05T21:05:45.438Z,4.87
2018-09-05T21:10:48.667Z,4.90
2018-09-05T21:15:51.895Z,4.97
2018-09-05T21:20:58.464Z,5.10
2018-09-05T21:26:01.652Z,4.70
2018-09-05T21:31:05.020Z,5.10
2018-09-05T21:36:08.295Z,5.10
2018-09-05T21:41:11.488Z,5.25
2018-09-05T21:46:14.663Z,4.40
2018-09-05T21:51:17.886Z,4.60
2018-09-05T21:56:21.144Z,4.97
2018-09-05T22:01:24.391Z,5.05
2018-09-05T22:06:27.599Z,5.23
2018-09-05T22:11:30.887Z,5.17
2018-09-05T22:16:34.067Z,5.03
2018-09-05T22:21:37.312Z,5.03
2018-09-05T22:26:40.866Z,5.20
2018-09-05T22:31:44.107Z,4.80
2018-09-05T22:36:47.310Z,5.10
2018-09-05T22:41:50.537Z,5.00
2018-09-05T22:47:05.147Z,5.00
2018-09-05T22:53:24.209Z,5.10
2018-09-05T22:58:52.372Z,5.40
2018-09-05T23:06:18.920Z,5.80
2018-09-05T23:11:39.967Z,5.47
2018-09-05T23:19:27.058Z,4.97
2018-09-05T23:24:30.267Z,6.00
2018-09-05T23:29:33.460Z,6.70
2018-09-05T23:34:36.639Z,6.47
2018-09-05T23:39:39.852Z,5.92
2018-09-05T23:44:43.029Z,6.70
2018-09-05T23:49:46.339Z,5.80
2018-09-05T23:54:49.604Z,6.65
2018-09-05T23:59:52.824Z,5.93
